Time;durP1;ratioP1;P1;durP2;ratioP2;P2;SDS_P1;SDS_P2;PMS_P1;PMS_P2;Temp;Humidity;BMP_temperature;BMP_pressure;BME280_temperature;BME280_humidity;BME280_pressure;Samples;Min_cycle;Max_cycle;Signal;HPM_P1;HPM_P2
2023/09/14 00:01:57;;;;;;;19.00;10.25;;;;;;;;;;5051219;28;20480;-82
2023/09/14 00:04:43;;;;;;;12.02;6.93;;;;;;;;;;5036843;28;20045;-80
2023/09/14 00:07:28;;;;;;;10.43;6.28;;;;;;;;;;5029341;28;20396;-81
2023/09/14 00:10:14;;;;;;;15.52;5.93;;;;;;;;;;5052557;28;20097;-78
2023/09/14 00:13:00;;;;;;;11.13;5.80;;;;;;;;;;5029966;28;20045;-80
2023/09/14 00:15:45;;;;;;;11.30;5.85;;;;;;;;;;5056533;28;20045;-79
2023/09/14 00:18:31;;;;;;;9.77;5.78;;;;;;;;;;5051219;28;20052;-80
2023/09/14 00:21:17;;;;;;;12.18;5.60;;;;;;;;;;5043084;28;20496;-80
2023/09/14 00:24:03;;;;;;;12.38;5.60;;;;;;;;;;5035583;28;20037;-78
2023/09/14 00:26:49;;;;;;;8.48;5.47;;;;;;;;;;5042548;28;20444;-80
2023/09/14 00:29:36;;;;;;;11.57;5.68;;;;;;;;;;5036026;28;20388;-80
2023/09/14 00:32:23;;;;;;;10.98;5.70;;;;;;;;;;5039807;28;20041;-79
2023/09/14 00:35:14;;;;;;;10.15;5.95;;;;;;;;;;5043044;28;20041;-79
2023/09/14 00:37:59;;;;;;;8.82;6.22;;;;;;;;;;5049559;28;20052;-78
2023/09/14 00:40:45;;;;;;;11.05;5.63;;;;;;;;;;5042866;28;20472;-78
2023/09/14 00:43:32;;;;;;;12.32;6.72;;;;;;;;;;5040154;28;20483;-81
2023/09/14 00:46:20;;;;;;;15.00;5.78;;;;;;;;;;5050975;28;20495;-78
2023/09/14 00:49:05;;;;;;;15.13;6.10;;;;;;;;;;5036653;28;20044;-78
2023/09/14 00:51:51;;;;;;;15.45;6.43;;;;;;;;;;5035232;28;20060;-79
2023/09/14 00:54:37;;;;;;;10.60;6.38;;;;;;;;;;5042213;28;20048;-79
2023/09/14 00:57:24;;;;;;;11.85;6.30;;;;;;;;;;5041503;28;20411;-81
2023/09/14 01:00:12;;;;;;;11.20;6.15;;;;;;;;;;5036979;28;20049;-80
2023/09/14 01:03:01;;;;;;;13.43;6.05;;;;;;;;;;5038417;28;20048;-81
2023/09/14 01:05:48;;;;;;;12.40;6.50;;;;;;;;;;5048102;28;20049;-80
2023/09/14 01:08:34;;;;;;;11.23;5.38;;;;;;;;;;5035612;28;20041;-80
2023/09/14 01:11:19;;;;;;;13.48;5.78;;;;;;;;;;5041754;28;20053;-78
2023/09/14 01:14:17;;;;;;;12.48;5.85;;;;;;;;;;5049652;28;20072;-80
2023/09/14 01:17:33;;;;;;;9.70;5.88;;;;;;;;;;5042137;28;20041;-78
2023/09/14 01:20:40;;;;;;;12.88;6.22;;;;;;;;;;5031887;28;20045;-81
2023/09/14 01:23:34;;;;;;;12.93;5.72;;;;;;;;;;5033453;28;20057;-80
2023/09/14 01:26:20;;;;;;;12.48;6.60;;;;;;;;;;5051614;28;20041;-81
2023/09/14 01:29:05;;;;;;;10.60;5.65;;;;;;;;;;5048888;28;20045;-80
2023/09/14 01:31:49;;;;;;;16.25;6.03;;;;;;;;;;5055798;28;20045;-80
2023/09/14 01:34:35;;;;;;;18.13;6.43;;;;;;;;;;5053798;28;20389;-82
2023/09/14 01:37:21;;;;;;;12.77;6.20;;;;;;;;;;5041536;28;20045;-79
2023/09/14 01:40:09;;;;;;;13.68;6.45;;;;;;;;;;5041269;28;20045;-78
2023/09/14 01:42:54;;;;;;;11.88;6.03;;;;;;;;;;5041743;28;20044;-81
2023/09/14 01:45:40;;;;;;;13.43;6.53;;;;;;;;;;5041925;28;20094;-79
2023/09/14 01:48:25;;;;;;;11.45;6.18;;;;;;;;;;5041305;28;20041;-79
2023/09/14 01:51:11;;;;;;;13.50;6.18;;;;;;;;;;5050844;28;20049;-82
2023/09/14 01:53:56;;;;;;;15.07;6.43;;;;;;;;;;5041349;28;20041;-80
2023/09/14 01:56:42;;;;;;;15.43;6.22;;;;;;;;;;5041125;28;20479;-80
2023/09/14 01:59:28;;;;;;;9.65;5.97;;;;;;;;;;5027659;28;20048;-80
2023/09/14 02:02:13;;;;;;;10.60;6.40;;;;;;;;;;5040390;28;20468;-79
2023/09/14 02:04:58;;;;;;;9.88;6.18;;;;;;;;;;5049869;28;20045;-81
2023/09/14 02:07:45;;;;;;;12.18;5.93;;;;;;;;;;5054349;28;20041;-81
2023/09/14 02:10:30;;;;;;;10.00;6.32;;;;;;;;;;5040902;28;20476;-80
2023/09/14 02:13:15;;;;;;;10.73;6.40;;;;;;;;;;5046826;28;20401;-79
2023/09/14 02:16:01;;;;;;;13.65;6.07;;;;;;;;;;5029804;28;20057;-80
2023/09/14 02:18:46;;;;;;;11.93;6.05;;;;;;;;;;5036762;28;20049;-79
2023/09/14 02:21:32;;;;;;;9.77;6.15;;;;;;;;;;5044559;28;20041;-81
2023/09/14 02:24:18;;;;;;;10.63;6.03;;;;;;;;;;5045260;28;20049;-79
2023/09/14 02:27:03;;;;;;;10.85;5.93;;;;;;;;;;5035888;28;20045;-80
2023/09/14 02:29:55;;;;;;;13.05;6.78;;;;;;;;;;5021970;28;20041;-79
2023/09/14 02:32:40;;;;;;;8.57;5.40;;;;;;;;;;5051367;28;20053;-78
2023/09/14 02:35:26;;;;;;;15.82;6.25;;;;;;;;;;5026243;28;20044;-81
2023/09/14 02:38:12;;;;;;;11.75;6.03;;;;;;;;;;5040098;28;20045;-81
2023/09/14 02:40:57;;;;;;;10.85;6.25;;;;;;;;;;5047023;28;20053;-81
2023/09/14 02:43:43;;;;;;;17.25;6.03;;;;;;;;;;5039873;28;20040;-80
2023/09/14 02:46:29;;;;;;;13.60;6.22;;;;;;;;;;5051955;28;20044;-79
2023/09/14 02:49:14;;;;;;;10.80;5.82;;;;;;;;;;5039517;28;20049;-79
2023/09/14 02:51:59;;;;;;;10.68;6.20;;;;;;;;;;5047833;28;20438;-79
2023/09/14 02:54:45;;;;;;;12.40;5.50;;;;;;;;;;5039790;28;20476;-80
2023/09/14 02:57:32;;;;;;;22.73;6.78;;;;;;;;;;5039459;28;20053;-80
2023/09/14 03:00:17;;;;;;;13.95;6.10;;;;;;;;;;5049867;28;20041;-82
2023/09/14 03:03:03;;;;;;;12.63;5.82;;;;;;;;;;5053918;28;20492;-80
2023/09/14 03:05:50;;;;;;;12.23;6.63;;;;;;;;;;5031898;28;20058;-81
2023/09/14 03:08:36;;;;;;;15.07;7.10;;;;;;;;;;5039003;28;20040;-80
2023/09/14 03:11:22;;;;;;;11.70;6.63;;;;;;;;;;5036593;28;20053;-81
2023/09/14 03:14:07;;;;;;;17.15;7.30;;;;;;;;;;5039416;28;20045;-81
2023/09/14 03:16:53;;;;;;;12.98;6.63;;;;;;;;;;5039186;28;20041;-81
2023/09/14 03:19:41;;;;;;;12.30;6.47;;;;;;;;;;5038562;28;20057;-79
2023/09/14 03:22:26;;;;;;;15.20;6.65;;;;;;;;;;5032290;28;20045;-79
2023/09/14 03:25:12;;;;;;;12.18;6.97;;;;;;;;;;5034392;28;20407;-80
2023/09/14 03:27:57;;;;;;;12.50;7.03;;;;;;;;;;5053218;28;20045;-80
2023/09/14 03:30:43;;;;;;;10.48;7.03;;;;;;;;;;5039070;28;20049;-78
2023/09/14 03:33:28;;;;;;;13.98;6.68;;;;;;;;;;5047080;28;20040;-79
2023/09/14 03:36:16;;;;;;;10.82;7.07;;;;;;;;;;5038852;28;20048;-80
2023/09/14 03:39:02;;;;;;;16.23;7.45;;;;;;;;;;5038885;28;20041;-81
2023/09/14 03:41:52;;;;;;;14.45;7.20;;;;;;;;;;5038376;28;20056;-79
2023/09/14 03:44:37;;;;;;;17.63;7.57;;;;;;;;;;5051156;28;20049;-80
2023/09/14 03:47:23;;;;;;;14.05;8.70;;;;;;;;;;5024775;28;20399;-80
2023/09/14 03:50:10;;;;;;;17.02;9.65;;;;;;;;;;5038845;28;20041;-80
2023/09/14 03:52:56;;;;;;;18.33;8.80;;;;;;;;;;5046795;28;20483;-80
2023/09/14 03:55:41;;;;;;;16.05;8.07;;;;;;;;;;5047173;28;20407;-81
2023/09/14 03:58:27;;;;;;;15.60;8.90;;;;;;;;;;5038115;28;20052;-81
2023/09/14 04:01:12;;;;;;;15.32;8.30;;;;;;;;;;5046621;28;20041;-81
2023/09/14 04:03:58;;;;;;;12.88;8.02;;;;;;;;;;5038357;28;20044;-80
2023/09/14 04:06:46;;;;;;;24.85;8.18;;;;;;;;;;5046392;28;20476;-82
2023/09/14 04:09:32;;;;;;;17.13;7.97;;;;;;;;;;5038278;28;20037;-80
2023/09/14 04:12:17;;;;;;;13.77;8.00;;;;;;;;;;5038316;28;20078;-80
2023/09/14 04:15:04;;;;;;;16.42;8.10;;;;;;;;;;5046575;28;20475;-81
2023/09/14 04:17:49;;;;;;;19.42;8.85;;;;;;;;;;5038368;28;20075;-81
2023/09/14 04:20:34;;;;;;;18.63;8.95;;;;;;;;;;5046842;28;20048;-81
2023/09/14 04:23:21;;;;;;;20.17;8.57;;;;;;;;;;5042915;28;20485;-82
2023/09/14 04:26:06;;;;;;;18.45;8.85;;;;;;;;;;5026607;28;20431;-82
2023/09/14 04:28:53;;;;;;;15.63;10.02;;;;;;;;;;5036034;28;20044;-83
2023/09/14 04:31:40;;;;;;;20.52;9.73;;;;;;;;;;5037995;28;20049;-82
2023/09/14 04:34:27;;;;;;;26.25;11.25;;;;;;;;;;5037948;28;20049;-81
2023/09/14 04:37:11;;;;;;;17.42;12.68;;;;;;;;;;5037830;28;20052;-81
2023/09/14 04:39:58;;;;;;;19.23;10.13;;;;;;;;;;5046689;28;20049;-81
2023/09/14 04:42:43;;;;;;;14.27;9.18;;;;;;;;;;5037227;28;20048;-81
2023/09/14 04:45:29;;;;;;;15.50;10.10;;;;;;;;;;5037701;28;20037;-81
2023/09/14 04:48:15;;;;;;;23.10;10.07;;;;;;;;;;5047411;28;20042;-82
2023/09/14 04:51:01;;;;;;;18.55;8.93;;;;;;;;;;5031846;28;20057;-81
2023/09/14 04:53:46;;;;;;;21.27;9.90;;;;;;;;;;5041269;28;20045;-82
2023/09/14 04:56:32;;;;;;;22.42;10.13;;;;;;;;;;5022349;28;20079;-82
2023/09/14 04:59:17;;;;;;;19.13;9.45;;;;;;;;;;5037665;28;20052;-80
2023/09/14 05:02:02;;;;;;;20.45;8.60;;;;;;;;;;5051369;28;20507;-82
2023/09/14 05:04:48;;;;;;;14.52;7.50;;;;;;;;;;5045778;28;20036;-82
2023/09/14 05:07:33;;;;;;;18.55;7.53;;;;;;;;;;5030436;28;20045;-80
2023/09/14 05:10:19;;;;;;;23.50;8.75;;;;;;;;;;5045114;28;20067;-81
2023/09/14 05:13:04;;;;;;;14.75;8.32;;;;;;;;;;5036814;28;20399;-82
2023/09/14 05:15:50;;;;;;;14.98;8.15;;;;;;;;;;5022970;28;20049;-81
2023/09/14 05:18:39;;;;;;;20.90;8.98;;;;;;;;;;5036521;28;20052;-83
2023/09/14 05:21:26;;;;;;;17.20;8.13;;;;;;;;;;5045179;28;20053;-82
2023/09/14 05:24:13;;;;;;;16.50;6.22;;;;;;;;;;5046433;28;20033;-81
2023/09/14 05:27:00;;;;;;;16.58;6.40;;;;;;;;;;5037474;28;20049;-81
2023/09/14 05:29:46;;;;;;;9.80;5.93;;;;;;;;;;5036776;28;20045;-80
2023/09/14 05:32:32;;;;;;;15.80;6.75;;;;;;;;;;5036527;28;20053;-81
2023/09/14 05:35:18;;;;;;;22.58;10.63;;;;;;;;;;5036716;28;20045;-80
2023/09/14 05:38:04;;;;;;;34.40;15.20;;;;;;;;;;5045131;28;20045;-81
2023/09/14 05:40:52;;;;;;;54.95;25.02;;;;;;;;;;5023130;28;20045;-82
2023/09/14 05:43:37;;;;;;;35.30;14.95;;;;;;;;;;5036862;28;20041;-80
2023/09/14 05:46:22;;;;;;;35.65;15.52;;;;;;;;;;5033108;28;20052;-79
2023/09/14 05:49:08;;;;;;;31.45;13.88;;;;;;;;;;5036650;28;20048;-80
2023/09/14 05:51:54;;;;;;;27.08;12.73;;;;;;;;;;5030162;28;20037;-83
2023/09/14 05:54:39;;;;;;;33.78;12.57;;;;;;;;;;5044830;28;20052;-81
2023/09/14 05:57:24;;;;;;;30.02;12.07;;;;;;;;;;5036350;28;20052;-82
2023/09/14 06:00:14;;;;;;;25.30;13.07;;;;;;;;;;5031836;28;20049;-81
2023/09/14 06:03:05;;;;;;;20.63;11.05;;;;;;;;;;5035202;28;20049;-80
2023/09/14 06:05:51;;;;;;;22.27;10.40;;;;;;;;;;5044219;28;20041;-80
2023/09/14 06:08:37;;;;;;;18.52;11.00;;;;;;;;;;5051996;28;20048;-80
2023/09/14 06:11:23;;;;;;;19.33;10.35;;;;;;;;;;5039665;28;20045;-81
2023/09/14 06:14:08;;;;;;;23.95;12.15;;;;;;;;;;5039256;28;20048;-83
2023/09/14 06:16:53;;;;;;;31.27;12.30;;;;;;;;;;5039911;28;20600;-81
2023/09/14 06:19:39;;;;;;;23.00;12.73;;;;;;;;;;5031129;28;20041;-79
2023/09/14 06:22:31;;;;;;;24.13;12.10;;;;;;;;;;5044269;28;20049;-81
2023/09/14 06:25:17;;;;;;;21.55;11.77;;;;;;;;;;5038099;28;20049;-80
2023/09/14 06:28:05;;;;;;;24.05;11.50;;;;;;;;;;5048482;28;20068;-81
2023/09/14 06:30:49;;;;;;;32.50;11.70;;;;;;;;;;5048965;28;20041;-80
2023/09/14 06:33:34;;;;;;;23.00;12.25;;;;;;;;;;5031835;28;20037;-82
2023/09/14 06:36:20;;;;;;;24.33;11.52;;;;;;;;;;5035583;28;20045;-82
2023/09/14 06:39:06;;;;;;;25.92;10.30;;;;;;;;;;5027054;28;20041;-79
2023/09/14 06:41:51;;;;;;;24.65;11.27;;;;;;;;;;5032129;28;20040;-80
2023/09/14 06:44:36;;;;;;;22.30;10.98;;;;;;;;;;5046984;28;20404;-79
2023/09/14 06:47:22;;;;;;;24.17;10.85;;;;;;;;;;5046758;28;20064;-81
2023/09/14 06:50:08;;;;;;;24.02;11.40;;;;;;;;;;5038802;28;20049;-82
2023/09/14 06:52:53;;;;;;;28.85;10.82;;;;;;;;;;5047059;28;20045;-81
2023/09/14 06:55:39;;;;;;;27.02;10.70;;;;;;;;;;5046672;28;20086;-82
2023/09/14 06:58:24;;;;;;;18.00;9.20;;;;;;;;;;5047434;28;20045;-80
2023/09/14 07:01:09;;;;;;;29.70;10.70;;;;;;;;;;5047431;28;20446;-81
2023/09/14 07:03:55;;;;;;;21.63;9.50;;;;;;;;;;5046626;28;20057;-82
2023/09/14 07:06:40;;;;;;;21.10;10.10;;;;;;;;;;5046924;28;20483;-81
2023/09/14 07:09:26;;;;;;;21.13;9.68;;;;;;;;;;5031626;28;20041;-84
2023/09/14 07:12:11;;;;;;;19.10;10.27;;;;;;;;;;5030480;28;20044;-80
2023/09/14 07:14:56;;;;;;;26.08;9.95;;;;;;;;;;5046301;28;20040;-80
2023/09/14 07:17:42;;;;;;;27.42;10.07;;;;;;;;;;5046718;28;20048;-81
2023/09/14 07:20:27;;;;;;;24.15;9.73;;;;;;;;;;5039784;28;20053;-81
2023/09/14 07:23:13;;;;;;;23.48;10.55;;;;;;;;;;5047401;28;20049;-82
2023/09/14 07:25:58;;;;;;;27.35;11.10;;;;;;;;;;5047152;28;20045;-81
2023/09/14 07:28:44;;;;;;;21.45;10.52;;;;;;;;;;5039056;28;20041;-81
2023/09/14 07:31:29;;;;;;;20.30;10.40;;;;;;;;;;5039015;28;20048;-82
2023/09/14 07:34:15;;;;;;;27.90;9.65;;;;;;;;;;5048716;28;20503;-80
2023/09/14 07:37:01;;;;;;;22.90;10.07;;;;;;;;;;5025936;28;20052;-81
2023/09/14 07:39:46;;;;;;;21.83;7.80;;;;;;;;;;5039044;28;20044;-82
2023/09/14 07:42:32;;;;;;;18.20;8.57;;;;;;;;;;5047212;28;20112;-83
2023/09/14 07:45:18;;;;;;;18.63;10.70;;;;;;;;;;5031433;28;20391;-82
2023/09/14 07:48:05;;;;;;;22.33;10.60;;;;;;;;;;5038348;28;20488;-81
2023/09/14 07:50:50;;;;;;;17.92;8.57;;;;;;;;;;5030749;28;20040;-80
2023/09/14 07:53:35;;;;;;;17.40;7.10;;;;;;;;;;5032124;28;20048;-81
2023/09/14 07:56:20;;;;;;;13.40;6.40;;;;;;;;;;5038862;28;20044;-82
2023/09/14 07:59:05;;;;;;;16.00;5.60;;;;;;;;;;5046622;28;20033;-80
2023/09/14 08:01:51;;;;;;;13.98;5.65;;;;;;;;;;5045971;28;20045;-82
2023/09/14 08:04:37;;;;;;;19.50;5.18;;;;;;;;;;5046272;28;20040;-82
2023/09/14 08:07:22;;;;;;;9.75;5.25;;;;;;;;;;5038825;28;20304;-81
2023/09/14 08:10:08;;;;;;;13.85;5.22;;;;;;;;;;5031775;28;20053;-82
2023/09/14 08:12:53;;;;;;;11.60;5.15;;;;;;;;;;5031285;28;20040;-81
2023/09/14 08:15:40;;;;;;;17.55;5.07;;;;;;;;;;5046865;28;20041;-81
2023/09/14 08:18:25;;;;;;;16.70;9.05;;;;;;;;;;5031177;28;20041;-79
2023/09/14 08:21:11;;;;;;;15.95;6.28;;;;;;;;;;5046621;28;20472;-81
2023/09/14 08:23:57;;;;;;;11.85;6.20;;;;;;;;;;5011935;28;20400;-81
2023/09/14 08:26:42;;;;;;;19.08;9.48;;;;;;;;;;5017847;28;20058;-79
2023/09/14 08:29:29;;;;;;;30.65;16.90;;;;;;;;;;5017385;28;20404;-80
2023/09/14 08:32:15;;;;;;;28.73;17.90;;;;;;;;;;5026289;28;20049;-82
2023/09/14 08:35:19;;;;;;;35.47;21.65;;;;;;;;;;5026682;28;20488;-81
2023/09/14 08:38:06;;;;;;;;;;;;;;;;;;5011205;28;20053;-81
2023/09/14 08:40:54;;;;;;;29.80;14.85;;;;;;;;;;5018485;28;19913;-80
2023/09/14 08:43:40;;;;;;;20.98;11.35;;;;;;;;;;5026343;28;20034;-80
2023/09/14 08:46:26;;;;;;;24.52;10.88;;;;;;;;;;5011178;28;20045;-79
2023/09/14 08:49:13;;;;;;;18.23;10.52;;;;;;;;;;5025889;28;20049;-79
2023/09/14 08:52:00;;;;;;;17.27;8.80;;;;;;;;;;5017851;28;20065;-79
2023/09/14 08:54:45;;;;;;;16.13;8.68;;;;;;;;;;5026503;28;20053;-81
2023/09/14 08:57:31;;;;;;;21.70;10.15;;;;;;;;;;5017812;28;20049;-77
2023/09/14 09:00:18;;;;;;;23.05;9.95;;;;;;;;;;5011127;28;20057;-81
2023/09/14 09:03:03;;;;;;;20.48;9.20;;;;;;;;;;5017298;28;20057;-81
2023/09/14 09:05:49;;;;;;;20.02;10.75;;;;;;;;;;5025723;28;20465;-80
2023/09/14 09:08:35;;;;;;;14.48;8.55;;;;;;;;;;5010822;28;20037;-78
2023/09/14 09:11:21;;;;;;;10.45;6.40;;;;;;;;;;5010780;28;20041;-77
2023/09/14 09:14:06;;;;;;;13.93;7.60;;;;;;;;;;5010869;28;20492;-80
2023/09/14 09:16:52;;;;;;;14.32;7.75;;;;;;;;;;5022177;28;20045;-81
2023/09/14 09:19:48;;;;;;;10.38;6.43;;;;;;;;;;5010804;28;20500;-80
2023/09/14 09:22:34;;;;;;;9.40;6.00;;;;;;;;;;5023441;28;20487;-80
2023/09/14 09:25:20;;;;;;;11.90;6.28;;;;;;;;;;5036939;28;20053;-80
2023/09/14 09:28:06;;;;;;;15.93;6.15;;;;;;;;;;5030626;28;20045;-81
2023/09/14 09:30:55;;;;;;;13.07;6.05;;;;;;;;;;5045096;28;20524;-80
2023/09/14 09:33:40;;;;;;;13.60;5.70;;;;;;;;;;5030857;28;20049;-79
2023/09/14 09:36:26;;;;;;;12.50;6.20;;;;;;;;;;5045112;28;20045;-81
2023/09/14 09:39:13;;;;;;;11.68;6.00;;;;;;;;;;5045185;28;20396;-82
2023/09/14 09:41:58;;;;;;;12.75;5.43;;;;;;;;;;5033084;28;20045;-80
2023/09/14 09:44:43;;;;;;;13.55;5.30;;;;;;;;;;5049754;28;20045;-80
2023/09/14 09:47:32;;;;;;;20.60;5.55;;;;;;;;;;5035169;28;20049;-79
2023/09/14 09:50:20;;;;;;;8.82;5.55;;;;;;;;;;5049420;28;20041;-82
2023/09/14 09:53:10;;;;;;;11.15;5.38;;;;;;;;;;5034739;28;20037;-83
2023/09/14 09:55:56;;;;;;;8.95;5.28;;;;;;;;;;5034223;28;20045;-82
2023/09/14 09:58:47;;;;;;;11.05;5.25;;;;;;;;;;5041743;28;20052;-81
2023/09/14 10:01:32;;;;;;;13.77;5.72;;;;;;;;;;5034847;28;20491;-81
2023/09/14 10:04:17;;;;;;;15.43;5.70;;;;;;;;;;5049440;28;20056;-79
2023/09/14 10:07:06;;;;;;;10.32;5.53;;;;;;;;;;5049117;28;20049;-79
2023/09/14 10:09:55;;;;;;;10.80;5.45;;;;;;;;;;5045284;28;20340;-79
2023/09/14 10:12:42;;;;;;;10.48;5.18;;;;;;;;;;5051251;28;21362;-79
2023/09/14 10:15:31;;;;;;;9.20;5.28;;;;;;;;;;5055544;28;20037;-78
2023/09/14 10:18:23;;;;;;;10.25;4.95;;;;;;;;;;5054863;28;20566;-79
2023/09/14 10:21:09;;;;;;;9.48;5.40;;;;;;;;;;5050216;28;20411;-80
2023/09/14 10:23:54;;;;;;;7.78;4.93;;;;;;;;;;5055519;28;20045;-78
2023/09/14 10:26:40;;;;;;;7.53;4.82;;;;;;;;;;5055533;28;20045;-79
2023/09/14 10:29:27;;;;;;;7.03;4.97;;;;;;;;;;5054463;28;20045;-79
2023/09/14 10:32:15;;;;;;;9.40;5.15;;;;;;;;;;5054913;28;20037;-77
2023/09/14 10:35:01;;;;;;;10.57;5.20;;;;;;;;;;5048762;28;20383;-79
2023/09/14 10:37:46;;;;;;;9.57;4.88;;;;;;;;;;5048999;28;20053;-81
2023/09/14 10:40:36;;;;;;;8.98;5.35;;;;;;;;;;5048467;28;20045;-81
2023/09/14 10:43:22;;;;;;;10.95;5.45;;;;;;;;;;5048274;28;20044;-79
2023/09/14 10:46:22;;;;;;;10.45;5.50;;;;;;;;;;5048521;28;20041;-81
2023/09/14 10:49:09;;;;;;;9.30;5.30;;;;;;;;;;5047063;28;20037;-79
2023/09/14 10:51:55;;;;;;;8.23;5.40;;;;;;;;;;5047383;28;20049;-81
2023/09/14 10:54:40;;;;;;;9.85;5.15;;;;;;;;;;5039770;28;20061;-77
2023/09/14 10:57:28;;;;;;;10.60;5.50;;;;;;;;;;5048143;28;20037;-78
2023/09/14 11:00:34;;;;;;;11.07;5.47;;;;;;;;;;5046800;28;20044;-83
2023/09/14 11:03:21;;;;;;;10.18;5.40;;;;;;;;;;5033192;28;20053;-79
2023/09/14 11:06:07;;;;;;;13.27;11.48;;;;;;;;;;5047625;28;20052;-81
2023/09/14 11:09:00;;;;;;;20.25;17.15;;;;;;;;;;5048142;28;20380;-78
2023/09/14 11:11:48;;;;;;;21.55;15.63;;;;;;;;;;5048130;28;20045;-79
2023/09/14 11:14:33;;;;;;;15.45;13.32;;;;;;;;;;5046940;28;20049;-78
2023/09/14 11:17:22;;;;;;;16.30;11.95;;;;;;;;;;5039727;28;20045;-82
2023/09/14 11:20:19;;;;;;;12.98;9.55;;;;;;;;;;5048115;28;20064;-79
2023/09/14 11:23:07;;;;;;;17.98;11.07;;;;;;;;;;5042793;28;20041;-79
2023/09/14 11:25:56;;;;;;;16.92;10.77;;;;;;;;;;5031489;28;20499;-81
2023/09/14 11:28:44;;;;;;;16.92;8.80;;;;;;;;;;5032207;28;20048;-80
2023/09/14 11:31:32;;;;;;;10.40;9.18;;;;;;;;;;5047496;28;20049;-83
2023/09/14 11:34:20;;;;;;;23.10;8.60;;;;;;;;;;5047449;28;20048;-82
2023/09/14 11:37:06;;;;;;;18.85;9.18;;;;;;;;;;5045193;28;21422;-78
2023/09/14 11:39:53;;;;;;;13.90;9.40;;;;;;;;;;5032176;28;20053;-80
2023/09/14 11:43:07;;;;;;;18.38;9.25;;;;;;;;;;5052421;28;20053;-79
2023/09/14 11:45:58;;;;;;;23.00;10.23;;;;;;;;;;5047007;28;20037;-80
2023/09/14 11:48:45;;;;;;;15.18;10.52;;;;;;;;;;5045618;28;20045;-78
2023/09/14 11:51:31;;;;;;;22.27;10.20;;;;;;;;;;5047537;28;20053;-78
2023/09/14 11:54:18;;;;;;;14.25;9.88;;;;;;;;;;5047125;28;20064;-80
2023/09/14 11:57:07;;;;;;;15.93;10.02;;;;;;;;;;5047375;28;20491;-78
2023/09/14 11:59:52;;;;;;;15.85;9.35;;;;;;;;;;5047757;28;20818;-78
2023/09/14 12:02:38;;;;;;;20.45;9.82;;;;;;;;;;5046598;28;20033;-76
2023/09/14 12:05:24;;;;;;;18.23;9.88;;;;;;;;;;5046604;28;20049;-80
2023/09/14 12:08:14;;;;;;;17.90;9.18;;;;;;;;;;5046072;28;20037;-79
2023/09/14 12:11:00;;;;;;;15.25;9.18;;;;;;;;;;5045832;28;20045;-79
2023/09/14 12:13:53;;;;;;;21.33;8.50;;;;;;;;;;5044914;28;20403;-83
2023/09/14 12:16:39;;;;;;;13.60;7.13;;;;;;;;;;5043510;28;20041;-82
2023/09/14 12:19:24;;;;;;;14.73;7.00;;;;;;;;;;5045812;28;20046;-80
2023/09/14 12:22:10;;;;;;;14.75;6.90;;;;;;;;;;5045857;28;20048;-79
2023/09/14 12:24:56;;;;;;;10.65;5.65;;;;;;;;;;5030826;28;20041;-77
2023/09/14 12:27:41;;;;;;;15.55;6.55;;;;;;;;;;5046556;28;20057;-79
2023/09/14 12:30:29;;;;;;;13.02;6.45;;;;;;;;;;5046218;28;20041;-78
2023/09/14 12:33:15;;;;;;;19.55;6.60;;;;;;;;;;5046369;28;20045;-79
2023/09/14 12:36:01;;;;;;;12.63;6.65;;;;;;;;;;5046289;28;20048;-75
2023/09/14 12:38:47;;;;;;;14.63;7.57;;;;;;;;;;5045954;28;20476;-80
2023/09/14 12:41:33;;;;;;;10.57;6.82;;;;;;;;;;5046217;28;20041;-81
2023/09/14 12:44:23;;;;;;;21.15;7.03;;;;;;;;;;5045565;28;20045;-77
2023/09/14 12:47:09;;;;;;;11.63;8.07;;;;;;;;;;5045054;28;20475;-77
2023/09/14 12:49:59;;;;;;;13.30;6.32;;;;;;;;;;5046270;28;20045;-79
2023/09/14 12:52:49;;;;;;;11.60;7.43;;;;;;;;;;5045765;28;20049;-79
2023/09/14 12:55:47;;;;;;;15.77;8.60;;;;;;;;;;5029505;28;20408;-79
2023/09/14 12:58:33;;;;;;;15.52;7.72;;;;;;;;;;5049595;28;20044;-79
2023/09/14 13:01:21;;;;;;;15.68;7.80;;;;;;;;;;5044924;28;20426;-80
2023/09/14 13:04:06;;;;;;;14.07;9.48;;;;;;;;;;5041822;28;20476;-78
2023/09/14 13:06:51;;;;;;;19.73;10.98;;;;;;;;;;5045525;28;20041;-78
2023/09/14 13:09:37;;;;;;;22.77;13.55;;;;;;;;;;5044910;28;20053;-79
2023/09/14 13:12:25;;;;;;;28.75;13.18;;;;;;;;;;5044302;28;20500;-80
2023/09/14 13:15:19;;;;;;;21.55;12.90;;;;;;;;;;5045326;28;20049;-79
2023/09/14 13:18:07;;;;;;;28.58;13.43;;;;;;;;;;5036712;28;20061;-77
2023/09/14 13:20:52;;;;;;;27.08;14.38;;;;;;;;;;5044682;28;20044;-78
2023/09/14 13:23:39;;;;;;;23.33;12.90;;;;;;;;;;5030441;28;20045;-78
2023/09/14 13:26:25;;;;;;;25.27;12.63;;;;;;;;;;5045857;28;20055;-80
2023/09/14 13:29:10;;;;;;;20.70;12.50;;;;;;;;;;5030802;28;20049;-81
2023/09/14 13:31:55;;;;;;;24.23;12.68;;;;;;;;;;5045091;28;20384;-80
2023/09/14 13:34:41;;;;;;;22.25;10.68;;;;;;;;;;5029357;28;20044;-76
2023/09/14 13:37:27;;;;;;;20.48;10.45;;;;;;;;;;5044758;28;20487;-79
2023/09/14 13:40:19;;;;;;;20.15;10.60;;;;;;;;;;5029220;28;20399;-79
2023/09/14 13:43:07;;;;;;;16.70;10.32;;;;;;;;;;5045792;28;20038;-79
2023/09/14 13:45:52;;;;;;;16.83;10.27;;;;;;;;;;5045689;28;20044;-79
2023/09/14 13:48:38;;;;;;;14.55;9.68;;;;;;;;;;5044241;28;20041;-80
2023/09/14 13:51:23;;;;;;;13.63;8.88;;;;;;;;;;5030098;28;20041;-79
2023/09/14 13:54:09;;;;;;;15.32;10.25;;;;;;;;;;5045716;28;20057;-80
2023/09/14 13:56:54;;;;;;;16.92;9.25;;;;;;;;;;5030690;28;20704;-80
2023/09/14 13:59:40;;;;;;;13.15;8.52;;;;;;;;;;5030856;28;20049;-79
2023/09/14 14:02:26;;;;;;;15.00;8.82;;;;;;;;;;5044977;28;20053;-79
2023/09/14 14:05:11;;;;;;;13.02;8.75;;;;;;;;;;5045248;28;20041;-79
2023/09/14 14:07:58;;;;;;;13.65;9.38;;;;;;;;;;5044826;28;20037;-81
2023/09/14 14:10:44;;;;;;;12.90;8.98;;;;;;;;;;5045213;28;20041;-81
2023/09/14 14:13:29;;;;;;;15.88;9.98;;;;;;;;;;5036349;28;20045;-81
2023/09/14 14:16:15;;;;;;;11.93;9.15;;;;;;;;;;5036827;28;20443;-80
2023/09/14 14:19:00;;;;;;;17.08;9.48;;;;;;;;;;5045453;28;20045;-81
2023/09/14 14:21:46;;;;;;;13.65;8.45;;;;;;;;;;5045063;28;20781;-78
2023/09/14 14:24:33;;;;;;;15.70;8.88;;;;;;;;;;5044514;28;20037;-79
2023/09/14 14:27:18;;;;;;;14.48;9.32;;;;;;;;;;5046627;28;20041;-80
2023/09/14 14:30:05;;;;;;;18.10;9.02;;;;;;;;;;5047883;28;20052;-79
2023/09/14 14:32:50;;;;;;;14.00;9.45;;;;;;;;;;5048698;28;20415;-80
2023/09/14 14:35:36;;;;;;;14.52;9.38;;;;;;;;;;5048889;28;20048;-77
2023/09/14 14:38:22;;;;;;;14.00;8.73;;;;;;;;;;5048387;28;20044;-79
2023/09/14 14:41:07;;;;;;;16.33;9.15;;;;;;;;;;5048596;28;20041;-78
2023/09/14 14:43:52;;;;;;;14.05;9.73;;;;;;;;;;5033985;28;20041;-77
2023/09/14 14:46:37;;;;;;;17.13;9.00;;;;;;;;;;5033367;28;20033;-78
2023/09/14 14:49:23;;;;;;;17.65;9.45;;;;;;;;;;5048009;28;20044;-78
2023/09/14 14:52:08;;;;;;;14.10;9.25;;;;;;;;;;5032410;28;20041;-79
2023/09/14 14:54:54;;;;;;;16.95;10.10;;;;;;;;;;5047596;28;20045;-80
2023/09/14 14:57:39;;;;;;;18.63;11.43;;;;;;;;;;5048304;28;20408;-79
2023/09/14 15:00:25;;;;;;;18.67;11.98;;;;;;;;;;5047879;28;20049;-79
2023/09/14 15:03:12;;;;;;;16.55;11.65;;;;;;;;;;5047078;28;20040;-80
2023/09/14 15:06:01;;;;;;;17.15;11.65;;;;;;;;;;5049580;28;20049;-79
2023/09/14 15:08:47;;;;;;;13.13;10.18;;;;;;;;;;5050074;28;20032;-80
2023/09/14 15:11:32;;;;;;;15.60;11.50;;;;;;;;;;5030867;28;20028;-79
2023/09/14 15:14:22;;;;;;;16.48;11.00;;;;;;;;;;5045867;28;20076;-82
2023/09/14 15:17:08;;;;;;;21.60;11.48;;;;;;;;;;5043343;28;20479;-79
2023/09/14 15:19:53;;;;;;;14.85;9.75;;;;;;;;;;5047998;28;20045;-80
2023/09/14 15:22:42;;;;;;;19.85;9.98;;;;;;;;;;5047473;28;20041;-80
2023/09/14 15:25:34;;;;;;;17.08;10.85;;;;;;;;;;5046764;28;20052;-78
2023/09/14 15:28:21;;;;;;;15.25;11.38;;;;;;;;;;5047185;28;20379;-77
2023/09/14 15:31:13;;;;;;;21.15;12.82;;;;;;;;;;5046551;28;20048;-79
2023/09/14 15:34:00;;;;;;;17.92;11.98;;;;;;;;;;5045633;28;20750;-79
2023/09/14 15:36:45;;;;;;;18.20;11.43;;;;;;;;;;5046396;28;20041;-77
2023/09/14 15:39:31;;;;;;;25.95;13.05;;;;;;;;;;5031037;28;20045;-79
2023/09/14 15:42:16;;;;;;;17.73;11.32;;;;;;;;;;5049220;28;20052;-80
2023/09/14 15:45:05;;;;;;;19.15;12.40;;;;;;;;;;5024688;28;20049;-79
2023/09/14 15:47:50;;;;;;;15.30;11.93;;;;;;;;;;5045593;28;20419;-78
2023/09/14 15:50:36;;;;;;;19.20;12.52;;;;;;;;;;5046783;28;20048;-80
2023/09/14 15:53:23;;;;;;;19.05;12.02;;;;;;;;;;5047487;28;20044;-77
2023/09/14 15:56:10;;;;;;;19.75;11.98;;;;;;;;;;5046974;28;20705;-78
2023/09/14 15:58:55;;;;;;;16.48;11.90;;;;;;;;;;5047539;28;20079;-78
2023/09/14 16:01:41;;;;;;;18.40;12.82;;;;;;;;;;5046896;28;20041;-78
2023/09/14 16:04:26;;;;;;;18.23;12.15;;;;;;;;;;5032013;28;20041;-79
2023/09/14 16:07:12;;;;;;;19.90;12.38;;;;;;;;;;5047193;28;20049;-79
2023/09/14 16:10:00;;;;;;;20.02;13.00;;;;;;;;;;5046461;28;20045;-79
2023/09/14 16:12:45;;;;;;;21.95;12.60;;;;;;;;;;5046988;28;20404;-78
2023/09/14 16:15:32;;;;;;;17.50;11.48;;;;;;;;;;5046118;28;20488;-79
2023/09/14 16:18:18;;;;;;;21.20;13.68;;;;;;;;;;5046950;28;20048;-79
2023/09/14 16:21:03;;;;;;;16.05;12.13;;;;;;;;;;5046881;28;20053;-78